<?xml version="1.0" encoding="UTF-8" standalone="no" ?><gpx xmlns="http://www.topografix.com/GPX/1/1" xmlns:gpxx="http://www.garmin.com/xmlschemas/GpxExtensions/v3" xmlns:wptx1="http://www.garmin.com/xmlschemas/WaypointExtension/v1" xmlns:gpxtpx="http://www.garmin.com/xmlschemas/TrackPointExtension/v1" creator="GuideVTT.com" version="1.1" xmlns:xsi="http://www.w3.org/2001/XMLSchema-instance" xsi:schemaLocation="http://www.topografix.com/GPX/1/1 http://www.topografix.com/GPX/1/1/gpx.xsd http://www.garmin.com/xmlschemas/GpxExtensions/v3 http://www8.garmin.com/xmlschemas/GpxExtensionsv3.xsd http://www.garmin.com/xmlschemas/WaypointExtension/v1 http://www8.garmin.com/xmlschemas/WaypointExtensionv1.xsd http://www.garmin.com/xmlschemas/TrackPointExtension/v1 http://www.garmin.com/xmlschemas/TrackPointExtensionv1.xsd">
<metadata><link href="http://www.garmin.com"><text>Garmin International</text></link><time>2013-06-22T15:13:50Z</time></metadata>
<trk><name>2022-01-06_1217__20220106_1217.gpx</name><extensions><gpxx:TrackExtension><gpxx:DisplayColor>Cyan</gpxx:DisplayColor></gpxx:TrackExtension></extensions><trkseg>
<trkpt lat="48.8861628" lon="2.6285253"><ele>54.55</ele><time>2026-5-2T19:8:44Z</time></trkpt>
<trkpt lat="48.8863727" lon="2.6281341"><ele>54.62</ele><time>2026-5-2T19:8:47Z</time></trkpt>
<trkpt lat="48.8865241" lon="2.6279338"><ele>53.68</ele><time>2026-5-2T19:8:50Z</time></trkpt>
<trkpt lat="48.8865230" lon="2.6276537"><ele>57.06</ele><time>2026-5-2T19:8:53Z</time></trkpt>
<trkpt lat="48.8863670" lon="2.6274971"><ele>50.75</ele><time>2026-5-2T19:8:56Z</time></trkpt>
<trkpt lat="48.8862180" lon="2.6272985"><ele>45.37</ele><time>2026-5-2T19:8:59Z</time></trkpt>
<trkpt lat="48.8860352" lon="2.6269852"><ele>46.96</ele><time>2026-5-2T19:9:2Z</time></trkpt>
<trkpt lat="48.8858420" lon="2.6269750"><ele>48.90</ele><time>2026-5-2T19:9:5Z</time></trkpt>
<trkpt lat="48.8856607" lon="2.6270716"><ele>46.08</ele><time>2026-5-2T19:9:8Z</time></trkpt>
<trkpt lat="48.8854615" lon="2.6269857"><ele>44.54</ele><time>2026-5-2T19:9:11Z</time></trkpt>
<trkpt lat="48.8852890" lon="2.6271400"><ele>44.34</ele><time>2026-5-2T19:9:14Z</time></trkpt>
<trkpt lat="48.8851197" lon="2.6272553"><ele>47.87</ele><time>2026-5-2T19:9:17Z</time></trkpt>
<trkpt lat="48.8849358" lon="2.6272597"><ele>47.51</ele><time>2026-5-2T19:9:20Z</time></trkpt>
<trkpt lat="48.8847651" lon="2.6270807"><ele>47.08</ele><time>2026-5-2T19:9:23Z</time></trkpt>
<trkpt lat="48.8845626" lon="2.6268883"><ele>47.63</ele><time>2026-5-2T19:9:26Z</time></trkpt>
<trkpt lat="48.8843597" lon="2.6266875"><ele>48.27</ele><time>2026-5-2T19:9:29Z</time></trkpt>
<trkpt lat="48.8841818" lon="2.6265476"><ele>46.72</ele><time>2026-5-2T19:9:32Z</time></trkpt>
<trkpt lat="48.8840095" lon="2.6264008"><ele>45.88</ele><time>2026-5-2T19:9:35Z</time></trkpt>
<trkpt lat="48.8838709" lon="2.6266316"><ele>45.60</ele><time>2026-5-2T19:9:38Z</time></trkpt>
<trkpt lat="48.8837685" lon="2.6268627"><ele>46.03</ele><time>2026-5-2T19:9:41Z</time></trkpt>
<trkpt lat="48.8836822" lon="2.6271333"><ele>43.68</ele><time>2026-5-2T19:9:44Z</time></trkpt>
<trkpt lat="48.8835866" lon="2.6273989"><ele>42.82</ele><time>2026-5-2T19:9:47Z</time></trkpt>
<trkpt lat="48.8834886" lon="2.6276628"><ele>42.38</ele><time>2026-5-2T19:9:50Z</time></trkpt>
<trkpt lat="48.8833158" lon="2.6278045"><ele>40.62</ele><time>2026-5-2T19:9:53Z</time></trkpt>
<trkpt lat="48.8831185" lon="2.6276129"><ele>40.36</ele><time>2026-5-2T19:9:56Z</time></trkpt>
<trkpt lat="48.8829198" lon="2.6274154"><ele>42.34</ele><time>2026-5-2T19:9:59Z</time></trkpt>
<trkpt lat="48.8827620" lon="2.6272434"><ele>42.05</ele><time>2026-5-2T19:10:2Z</time></trkpt>
<trkpt lat="48.8825969" lon="2.6270492"><ele>41.33</ele><time>2026-5-2T19:10:5Z</time></trkpt>
<trkpt lat="48.8824350" lon="2.6268951"><ele>39.78</ele><time>2026-5-2T19:10:8Z</time></trkpt>
<trkpt lat="48.8822801" lon="2.6267329"><ele>39.03</ele><time>2026-5-2T19:10:11Z</time></trkpt>
<trkpt lat="48.8821169" lon="2.6265692"><ele>40.56</ele><time>2026-5-2T19:10:14Z</time></trkpt>
<trkpt lat="48.8819071" lon="2.6264103"><ele>40.73</ele><time>2026-5-2T19:10:17Z</time></trkpt>
<trkpt lat="48.8817490" lon="2.6262131"><ele>41.76</ele><time>2026-5-2T19:10:20Z</time></trkpt>
<trkpt lat="48.8815876" lon="2.6259935"><ele>42.02</ele><time>2026-5-2T19:10:23Z</time></trkpt>
<trkpt lat="48.8814141" lon="2.6260914"><ele>39.93</ele><time>2026-5-2T19:10:26Z</time></trkpt>
<trkpt lat="48.8812172" lon="2.6262538"><ele>39.64</ele><time>2026-5-2T19:10:29Z</time></trkpt>
<trkpt lat="48.8810578" lon="2.6263991"><ele>39.96</ele><time>2026-5-2T19:10:32Z</time></trkpt>
<trkpt lat="48.8808600" lon="2.6265785"><ele>40.16</ele><time>2026-5-2T19:10:35Z</time></trkpt>
<trkpt lat="48.8806719" lon="2.6267358"><ele>37.89</ele><time>2026-5-2T19:10:38Z</time></trkpt>
<trkpt lat="48.8804740" lon="2.6269122"><ele>37.53</ele><time>2026-5-2T19:10:41Z</time></trkpt>
<trkpt lat="48.8802853" lon="2.6270679"><ele>36.73</ele><time>2026-5-2T19:10:44Z</time></trkpt>
<trkpt lat="48.8801057" lon="2.6270910"><ele>35.00</ele><time>2026-5-2T19:10:47Z</time></trkpt>
<trkpt lat="48.8799406" lon="2.6269804"><ele>36.79</ele><time>2026-5-2T19:10:50Z</time></trkpt>
<trkpt lat="48.8800673" lon="2.6271903"><ele>42.42</ele><time>2026-5-2T19:10:53Z</time></trkpt>
<trkpt lat="48.8802032" lon="2.6273936"><ele>38.55</ele><time>2026-5-2T19:10:56Z</time></trkpt>
<trkpt lat="48.8803125" lon="2.6276357"><ele>37.61</ele><time>2026-5-2T19:10:59Z</time></trkpt>
<trkpt lat="48.8804366" lon="2.6278975"><ele>37.23</ele><time>2026-5-2T19:11:2Z</time></trkpt>
<trkpt lat="48.8806168" lon="2.6278263"><ele>37.45</ele><time>2026-5-2T19:11:5Z</time></trkpt>
<trkpt lat="48.8807805" lon="2.6276699"><ele>38.36</ele><time>2026-5-2T19:11:8Z</time></trkpt>
<trkpt lat="48.8809359" lon="2.6275001"><ele>36.16</ele><time>2026-5-2T19:11:11Z</time></trkpt>
<trkpt lat="48.8810956" lon="2.6273517"><ele>36.16</ele><time>2026-5-2T19:11:14Z</time></trkpt>
<trkpt lat="48.8812730" lon="2.6272143"><ele>36.14</ele><time>2026-5-2T19:11:17Z</time></trkpt>
<trkpt lat="48.8814673" lon="2.6270840"><ele>38.42</ele><time>2026-5-2T19:11:20Z</time></trkpt>
<trkpt lat="48.8816389" lon="2.6269742"><ele>38.39</ele><time>2026-5-2T19:11:23Z</time></trkpt>
<trkpt lat="48.8817903" lon="2.6268043"><ele>39.37</ele><time>2026-5-2T19:11:26Z</time></trkpt>
<trkpt lat="48.8819245" lon="2.6266020"><ele>39.74</ele><time>2026-5-2T19:11:29Z</time></trkpt>
<trkpt lat="48.8821147" lon="2.6265438"><ele>38.43</ele><time>2026-5-2T19:11:32Z</time></trkpt>
<trkpt lat="48.8822781" lon="2.6267323"><ele>37.08</ele><time>2026-5-2T19:11:35Z</time></trkpt>
<trkpt lat="48.8824146" lon="2.6269277"><ele>37.37</ele><time>2026-5-2T19:11:38Z</time></trkpt>
<trkpt lat="48.8825894" lon="2.6271347"><ele>37.57</ele><time>2026-5-2T19:11:41Z</time></trkpt>
<trkpt lat="48.8827297" lon="2.6273535"><ele>37.75</ele><time>2026-5-2T19:11:44Z</time></trkpt>
<trkpt lat="48.8828933" lon="2.6274860"><ele>39.99</ele><time>2026-5-2T19:11:47Z</time></trkpt>
<trkpt lat="48.8830945" lon="2.6274695"><ele>39.50</ele><time>2026-5-2T19:11:50Z</time></trkpt>
<trkpt lat="48.8832762" lon="2.6276286"><ele>41.17</ele><time>2026-5-2T19:11:53Z</time></trkpt>
<trkpt lat="48.8834614" lon="2.6275525"><ele>41.02</ele><time>2026-5-2T19:11:56Z</time></trkpt>
<trkpt lat="48.8835458" lon="2.6272672"><ele>43.37</ele><time>2026-5-2T19:11:59Z</time></trkpt>
<trkpt lat="48.8836460" lon="2.6269813"><ele>42.44</ele><time>2026-5-2T19:12:2Z</time></trkpt>
<trkpt lat="48.8837649" lon="2.6267567"><ele>42.05</ele><time>2026-5-2T19:12:5Z</time></trkpt>
<trkpt lat="48.8838898" lon="2.6265222"><ele>44.40</ele><time>2026-5-2T19:12:8Z</time></trkpt>
<trkpt lat="48.8840169" lon="2.6263159"><ele>45.50</ele><time>2026-5-2T19:12:11Z</time></trkpt>
<trkpt lat="48.8842015" lon="2.6264653"><ele>44.64</ele><time>2026-5-2T19:12:14Z</time></trkpt>
<trkpt lat="48.8843837" lon="2.6266516"><ele>46.05</ele><time>2026-5-2T19:12:17Z</time></trkpt>
<trkpt lat="48.8845561" lon="2.6264573"><ele>45.89</ele><time>2026-5-2T19:12:20Z</time></trkpt>
<trkpt lat="48.8847604" lon="2.6262714"><ele>46.00</ele><time>2026-5-2T19:12:23Z</time></trkpt>
<trkpt lat="48.8849409" lon="2.6260544"><ele>46.21</ele><time>2026-5-2T19:12:26Z</time></trkpt>
<trkpt lat="48.8851249" lon="2.6258008"><ele>46.29</ele><time>2026-5-2T19:12:29Z</time></trkpt>
<trkpt lat="48.8852890" lon="2.6255791"><ele>46.64</ele><time>2026-5-2T19:12:32Z</time></trkpt>
<trkpt lat="48.8854497" lon="2.6253714"><ele>45.82</ele><time>2026-5-2T19:12:35Z</time></trkpt>
<trkpt lat="48.8856334" lon="2.6253995"><ele>47.99</ele><time>2026-5-2T19:12:38Z</time></trkpt>
<trkpt lat="48.8857461" lon="2.6256295"><ele>50.22</ele><time>2026-5-2T19:12:41Z</time></trkpt>
<trkpt lat="48.8858618" lon="2.6258393"><ele>52.26</ele><time>2026-5-2T19:12:44Z</time></trkpt>
<trkpt lat="48.8859960" lon="2.6260727"><ele>50.92</ele><time>2026-5-2T19:12:47Z</time></trkpt>
<trkpt lat="48.8861191" lon="2.6262951"><ele>50.61</ele><time>2026-5-2T19:12:50Z</time></trkpt>
<trkpt lat="48.8862387" lon="2.6265671"><ele>49.37</ele><time>2026-5-2T19:12:53Z</time></trkpt>
<trkpt lat="48.8863688" lon="2.6267685"><ele>49.32</ele><time>2026-5-2T19:12:56Z</time></trkpt>
<trkpt lat="48.8865522" lon="2.6265887"><ele>49.96</ele><time>2026-5-2T19:12:59Z</time></trkpt>
<trkpt lat="48.8867306" lon="2.6263741"><ele>52.53</ele><time>2026-5-2T19:13:2Z</time></trkpt>
<trkpt lat="48.8869043" lon="2.6261727"><ele>51.81</ele><time>2026-5-2T19:13:5Z</time></trkpt>
<trkpt lat="48.8870746" lon="2.6260113"><ele>52.23</ele><time>2026-5-2T19:13:8Z</time></trkpt>
<trkpt lat="48.8872727" lon="2.6259566"><ele>53.57</ele><time>2026-5-2T19:13:11Z</time></trkpt>
<trkpt lat="48.8874036" lon="2.6261790"><ele>50.41</ele><time>2026-5-2T19:13:14Z</time></trkpt>
<trkpt lat="48.8875249" lon="2.6264040"><ele>49.84</ele><time>2026-5-2T19:13:17Z</time></trkpt>
<trkpt lat="48.8877158" lon="2.6266186"><ele>49.87</ele><time>2026-5-2T19:13:20Z</time></trkpt>
<trkpt lat="48.8878234" lon="2.6268429"><ele>50.76</ele><time>2026-5-2T19:13:23Z</time></trkpt>
<trkpt lat="48.8879506" lon="2.6271257"><ele>52.13</ele><time>2026-5-2T19:13:26Z</time></trkpt>
<trkpt lat="48.8880797" lon="2.6273974"><ele>53.13</ele><time>2026-5-2T19:13:29Z</time></trkpt>
<trkpt lat="48.8881996" lon="2.6276418"><ele>50.84</ele><time>2026-5-2T19:13:32Z</time></trkpt>
<trkpt lat="48.8883358" lon="2.6279187"><ele>49.25</ele><time>2026-5-2T19:13:35Z</time></trkpt>
<trkpt lat="48.8884632" lon="2.6281249"><ele>50.02</ele><time>2026-5-2T19:13:38Z</time></trkpt>
<trkpt lat="48.8886068" lon="2.6283580"><ele>49.99</ele><time>2026-5-2T19:13:41Z</time></trkpt>
<trkpt lat="48.8887725" lon="2.6286975"><ele>49.86</ele><time>2026-5-2T19:13:44Z</time></trkpt>
<trkpt lat="48.8889041" lon="2.6289706"><ele>48.16</ele><time>2026-5-2T19:13:47Z</time></trkpt>
<trkpt lat="48.8890445" lon="2.6292356"><ele>45.17</ele><time>2026-5-2T19:13:50Z</time></trkpt>
<trkpt lat="48.8891883" lon="2.6295377"><ele>43.62</ele><time>2026-5-2T19:13:53Z</time></trkpt>
<trkpt lat="48.8893509" lon="2.6298164"><ele>43.46</ele><time>2026-5-2T19:13:56Z</time></trkpt>
<trkpt lat="48.8894640" lon="2.6300582"><ele>42.90</ele><time>2026-5-2T19:13:59Z</time></trkpt>
<trkpt lat="48.8896060" lon="2.6303508"><ele>42.72</ele><time>2026-5-2T19:14:2Z</time></trkpt>
<trkpt lat="48.8897487" lon="2.6306067"><ele>43.43</ele><time>2026-5-2T19:14:5Z</time></trkpt>
<trkpt lat="48.8898901" lon="2.6308463"><ele>45.74</ele><time>2026-5-2T19:14:8Z</time></trkpt>
<trkpt lat="48.8900022" lon="2.6311352"><ele>41.69</ele><time>2026-5-2T19:14:11Z</time></trkpt>
<trkpt lat="48.8901292" lon="2.6313651"><ele>42.56</ele><time>2026-5-2T19:14:14Z</time></trkpt>
<trkpt lat="48.8902701" lon="2.6316279"><ele>43.52</ele><time>2026-5-2T19:14:17Z</time></trkpt>
<trkpt lat="48.8904071" lon="2.6318391"><ele>44.64</ele><time>2026-5-2T19:14:20Z</time></trkpt>
<trkpt lat="48.8905410" lon="2.6321189"><ele>45.71</ele><time>2026-5-2T19:14:23Z</time></trkpt>
<trkpt lat="48.8906462" lon="2.6323659"><ele>46.97</ele><time>2026-5-2T19:14:26Z</time></trkpt>
<trkpt lat="48.8907421" lon="2.6326231"><ele>49.02</ele><time>2026-5-2T19:14:29Z</time></trkpt>
<trkpt lat="48.8908000" lon="2.6328846"><ele>51.88</ele><time>2026-5-2T19:14:32Z</time></trkpt>
<trkpt lat="48.8908757" lon="2.6331410"><ele>52.78</ele><time>2026-5-2T19:14:35Z</time></trkpt>
<trkpt lat="48.8909836" lon="2.6334212"><ele>52.86</ele><time>2026-5-2T19:14:38Z</time></trkpt>
<trkpt lat="48.8911039" lon="2.6336286"><ele>54.61</ele><time>2026-5-2T19:14:41Z</time></trkpt>
<trkpt lat="48.8912074" lon="2.6338705"><ele>54.07</ele><time>2026-5-2T19:14:44Z</time></trkpt>
<trkpt lat="48.8913385" lon="2.6341881"><ele>52.71</ele><time>2026-5-2T19:14:47Z</time></trkpt>
<trkpt lat="48.8914460" lon="2.6344509"><ele>52.02</ele><time>2026-5-2T19:14:50Z</time></trkpt>
<trkpt lat="48.8915411" lon="2.6347554"><ele>51.26</ele><time>2026-5-2T19:14:53Z</time></trkpt>
<trkpt lat="48.8916521" lon="2.6349993"><ele>52.65</ele><time>2026-5-2T19:14:56Z</time></trkpt>
<trkpt lat="48.8917819" lon="2.6352453"><ele>53.41</ele><time>2026-5-2T19:14:59Z</time></trkpt>
<trkpt lat="48.8919316" lon="2.6354979"><ele>53.28</ele><time>2026-5-2T19:15:2Z</time></trkpt>
<trkpt lat="48.8920462" lon="2.6357397"><ele>54.60</ele><time>2026-5-2T19:15:5Z</time></trkpt>
<trkpt lat="48.8921490" lon="2.6359877"><ele>54.30</ele><time>2026-5-2T19:15:8Z</time></trkpt>
<trkpt lat="48.8922383" lon="2.6362693"><ele>47.89</ele><time>2026-5-2T19:15:11Z</time></trkpt>
<trkpt lat="48.8923312" lon="2.6365556"><ele>43.25</ele><time>2026-5-2T19:15:14Z</time></trkpt>
<trkpt lat="48.8924142" lon="2.6368463"><ele>39.31</ele><time>2026-5-2T19:15:17Z</time></trkpt>
<trkpt lat="48.8924926" lon="2.6371445"><ele>36.87</ele><time>2026-5-2T19:15:20Z</time></trkpt>
<trkpt lat="48.8925918" lon="2.6376637"><ele>31.42</ele><time>2026-5-2T19:15:23Z</time></trkpt>
<trkpt lat="48.8927117" lon="2.6379950"><ele>29.40</ele><time>2026-5-2T19:15:26Z</time></trkpt>
<trkpt lat="48.8928715" lon="2.6382917"><ele>30.32</ele><time>2026-5-2T19:15:29Z</time></trkpt>
<trkpt lat="48.8930168" lon="2.6385378"><ele>32.47</ele><time>2026-5-2T19:15:32Z</time></trkpt>
<trkpt lat="48.8931663" lon="2.6388227"><ele>35.66</ele><time>2026-5-2T19:15:35Z</time></trkpt>
<trkpt lat="48.8933281" lon="2.6390207"><ele>39.55</ele><time>2026-5-2T19:15:38Z</time></trkpt>
<trkpt lat="48.8934661" lon="2.6392222"><ele>41.14</ele><time>2026-5-2T19:15:41Z</time></trkpt>
<trkpt lat="48.8935701" lon="2.6394472"><ele>45.93</ele><time>2026-5-2T19:15:44Z</time></trkpt>
<trkpt lat="48.8936670" lon="2.6396950"><ele>46.74</ele><time>2026-5-2T19:15:47Z</time></trkpt>
<trkpt lat="48.8938095" lon="2.6399016"><ele>50.52</ele><time>2026-5-2T19:15:50Z</time></trkpt>
<trkpt lat="48.8939361" lon="2.6401278"><ele>51.32</ele><time>2026-5-2T19:15:53Z</time></trkpt>
<trkpt lat="48.8940783" lon="2.6404349"><ele>52.13</ele><time>2026-5-2T19:15:56Z</time></trkpt>
<trkpt lat="48.8941954" lon="2.6406812"><ele>52.48</ele><time>2026-5-2T19:15:59Z</time></trkpt>
<trkpt lat="48.8943164" lon="2.6409076"><ele>51.76</ele><time>2026-5-2T19:16:2Z</time></trkpt>
<trkpt lat="48.8944084" lon="2.6412146"><ele>53.06</ele><time>2026-5-2T19:16:5Z</time></trkpt>
<trkpt lat="48.8945345" lon="2.6414595"><ele>55.34</ele><time>2026-5-2T19:16:8Z</time></trkpt>
<trkpt lat="48.8946423" lon="2.6416974"><ele>56.74</ele><time>2026-5-2T19:16:11Z</time></trkpt>
<trkpt lat="48.8947447" lon="2.6419791"><ele>59.49</ele><time>2026-5-2T19:16:14Z</time></trkpt>
<trkpt lat="48.8948621" lon="2.6422510"><ele>60.12</ele><time>2026-5-2T19:16:17Z</time></trkpt>
<trkpt lat="48.8949990" lon="2.6424944"><ele>60.78</ele><time>2026-5-2T19:16:20Z</time></trkpt>
<trkpt lat="48.8951286" lon="2.6427089"><ele>60.92</ele><time>2026-5-2T19:16:23Z</time></trkpt>
<trkpt lat="48.8952028" lon="2.6429705"><ele>61.36</ele><time>2026-5-2T19:16:26Z</time></trkpt>
<trkpt lat="48.8952954" lon="2.6432097"><ele>60.33</ele><time>2026-5-2T19:16:29Z</time></trkpt>
<trkpt lat="48.8954237" lon="2.6435574"><ele>59.95</ele><time>2026-5-2T19:16:32Z</time></trkpt>
<trkpt lat="48.8955727" lon="2.6438317"><ele>60.83</ele><time>2026-5-2T19:16:35Z</time></trkpt>
<trkpt lat="48.8956680" lon="2.6440856"><ele>58.73</ele><time>2026-5-2T19:16:38Z</time></trkpt>
<trkpt lat="48.8958521" lon="2.6441874"><ele>58.25</ele><time>2026-5-2T19:16:41Z</time></trkpt>
<trkpt lat="48.8960007" lon="2.6444052"><ele>56.79</ele><time>2026-5-2T19:16:44Z</time></trkpt>
<trkpt lat="48.8961509" lon="2.6446407"><ele>57.76</ele><time>2026-5-2T19:16:47Z</time></trkpt>
<trkpt lat="48.8963137" lon="2.6448195"><ele>52.65</ele><time>2026-5-2T19:16:50Z</time></trkpt>
<trkpt lat="48.8964832" lon="2.6449842"><ele>53.71</ele><time>2026-5-2T19:16:53Z</time></trkpt>
<trkpt lat="48.8966431" lon="2.6451436"><ele>52.22</ele><time>2026-5-2T19:16:56Z</time></trkpt>
<trkpt lat="48.8968134" lon="2.6452556"><ele>52.35</ele><time>2026-5-2T19:16:59Z</time></trkpt>
<trkpt lat="48.8969666" lon="2.6454003"><ele>50.71</ele><time>2026-5-2T19:17:2Z</time></trkpt>
<trkpt lat="48.8971132" lon="2.6455870"><ele>48.85</ele><time>2026-5-2T19:17:5Z</time></trkpt>
<trkpt lat="48.8972553" lon="2.6457918"><ele>38.90</ele><time>2026-5-2T19:17:8Z</time></trkpt>
<trkpt lat="48.8974114" lon="2.6459886"><ele>31.73</ele><time>2026-5-2T19:17:11Z</time></trkpt>
<trkpt lat="48.8975383" lon="2.6462157"><ele>31.35</ele><time>2026-5-2T19:17:14Z</time></trkpt>
<trkpt lat="48.8976822" lon="2.6464127"><ele>31.63</ele><time>2026-5-2T19:17:17Z</time></trkpt>
<trkpt lat="48.8978540" lon="2.6466026"><ele>31.60</ele><time>2026-5-2T19:17:20Z</time></trkpt>
<trkpt lat="48.8980285" lon="2.6467842"><ele>32.00</ele><time>2026-5-2T19:17:23Z</time></trkpt>
<trkpt lat="48.8982000" lon="2.6469760"><ele>35.03</ele><time>2026-5-2T19:17:26Z</time></trkpt>
<trkpt lat="48.8983624" lon="2.6471659"><ele>38.45</ele><time>2026-5-2T19:17:29Z</time></trkpt>
<trkpt lat="48.8985474" lon="2.6473033"><ele>40.33</ele><time>2026-5-2T19:17:32Z</time></trkpt>
<trkpt lat="48.8987201" lon="2.6474354"><ele>44.38</ele><time>2026-5-2T19:17:35Z</time></trkpt>
<trkpt lat="48.8988870" lon="2.6475864"><ele>47.04</ele><time>2026-5-2T19:17:38Z</time></trkpt>
<trkpt lat="48.8990628" lon="2.6477745"><ele>46.36</ele><time>2026-5-2T19:17:41Z</time></trkpt>
<trkpt lat="48.8992184" lon="2.6479433"><ele>48.99</ele><time>2026-5-2T19:17:44Z</time></trkpt>
<trkpt lat="48.8993882" lon="2.6480537"><ele>48.00</ele><time>2026-5-2T19:17:47Z</time></trkpt>
<trkpt lat="48.8995881" lon="2.6480851"><ele>47.12</ele><time>2026-5-2T19:17:50Z</time></trkpt>
<trkpt lat="48.8997865" lon="2.6481080"><ele>49.12</ele><time>2026-5-2T19:17:53Z</time></trkpt>
<trkpt lat="48.8999745" lon="2.6481051"><ele>52.56</ele><time>2026-5-2T19:17:56Z</time></trkpt>
<trkpt lat="48.9001747" lon="2.6481374"><ele>57.15</ele><time>2026-5-2T19:17:59Z</time></trkpt>
<trkpt lat="48.9003881" lon="2.6481857"><ele>55.78</ele><time>2026-5-2T19:18:2Z</time></trkpt>
<trkpt lat="48.9005938" lon="2.6481959"><ele>56.75</ele><time>2026-5-2T19:18:5Z</time></trkpt>
<trkpt lat="48.9007891" lon="2.6482413"><ele>56.31</ele><time>2026-5-2T19:18:8Z</time></trkpt>
<trkpt lat="48.9009896" lon="2.6483432"><ele>58.58</ele><time>2026-5-2T19:18:11Z</time></trkpt>
<trkpt lat="48.9011632" lon="2.6484410"><ele>56.81</ele><time>2026-5-2T19:18:14Z</time></trkpt>
<trkpt lat="48.9013389" lon="2.6486289"><ele>56.50</ele><time>2026-5-2T19:18:17Z</time></trkpt>
<trkpt lat="48.9014839" lon="2.6488353"><ele>55.75</ele><time>2026-5-2T19:18:20Z</time></trkpt>
<trkpt lat="48.9013438" lon="2.6486237"><ele>59.42</ele><time>2026-5-2T19:18:23Z</time></trkpt>
<trkpt lat="48.9011782" lon="2.6485003"><ele>61.80</ele><time>2026-5-2T19:18:26Z</time></trkpt>
<trkpt lat="48.9009941" lon="2.6483678"><ele>62.31</ele><time>2026-5-2T19:18:29Z</time></trkpt>
<trkpt lat="48.9008195" lon="2.6482375"><ele>61.23</ele><time>2026-5-2T19:18:32Z</time></trkpt>
<trkpt lat="48.9006452" lon="2.6481692"><ele>61.52</ele><time>2026-5-2T19:18:35Z</time></trkpt>
<trkpt lat="48.9004403" lon="2.6481013"><ele>61.50</ele><time>2026-5-2T19:18:38Z</time></trkpt>
<trkpt lat="48.9002422" lon="2.6480874"><ele>56.56</ele><time>2026-5-2T19:18:41Z</time></trkpt>
<trkpt lat="48.9000175" lon="2.6481070"><ele>56.83</ele><time>2026-5-2T19:18:44Z</time></trkpt>
<trkpt lat="48.8998225" lon="2.6480973"><ele>52.94</ele><time>2026-5-2T19:18:47Z</time></trkpt>
<trkpt lat="48.8996288" lon="2.6480475"><ele>52.12</ele><time>2026-5-2T19:18:50Z</time></trkpt>
<trkpt lat="48.8994207" lon="2.6479810"><ele>51.18</ele><time>2026-5-2T19:18:53Z</time></trkpt>
<trkpt lat="48.8992449" lon="2.6478520"><ele>54.62</ele><time>2026-5-2T19:18:56Z</time></trkpt>
<trkpt lat="48.8990817" lon="2.6477157"><ele>53.93</ele><time>2026-5-2T19:18:59Z</time></trkpt>
<trkpt lat="48.8989008" lon="2.6475961"><ele>55.90</ele><time>2026-5-2T19:19:2Z</time></trkpt>
<trkpt lat="48.8987404" lon="2.6474368"><ele>56.70</ele><time>2026-5-2T19:19:5Z</time></trkpt>
<trkpt lat="48.8985943" lon="2.6472345"><ele>56.70</ele><time>2026-5-2T19:19:8Z</time></trkpt>
<trkpt lat="48.8984328" lon="2.6470525"><ele>58.92</ele><time>2026-5-2T19:19:11Z</time></trkpt>
<trkpt lat="48.8982729" lon="2.6469103"><ele>56.93</ele><time>2026-5-2T19:19:14Z</time></trkpt>
<trkpt lat="48.8981023" lon="2.6467788"><ele>53.75</ele><time>2026-5-2T19:19:17Z</time></trkpt>
<trkpt lat="48.8979474" lon="2.6466065"><ele>50.79</ele><time>2026-5-2T19:19:20Z</time></trkpt>
<trkpt lat="48.8978004" lon="2.6464374"><ele>49.14</ele><time>2026-5-2T19:19:23Z</time></trkpt>
<trkpt lat="48.8976547" lon="2.6462749"><ele>49.30</ele><time>2026-5-2T19:19:26Z</time></trkpt>
<trkpt lat="48.8974899" lon="2.6461153"><ele>48.09</ele><time>2026-5-2T19:19:29Z</time></trkpt>
<trkpt lat="48.8973121" lon="2.6459172"><ele>49.43</ele><time>2026-5-2T19:19:32Z</time></trkpt>
<trkpt lat="48.8971416" lon="2.6457816"><ele>49.41</ele><time>2026-5-2T19:19:35Z</time></trkpt>
<trkpt lat="48.8969929" lon="2.6455639"><ele>47.44</ele><time>2026-5-2T19:19:38Z</time></trkpt>
<trkpt lat="48.8968405" lon="2.6454093"><ele>47.90</ele><time>2026-5-2T19:19:41Z</time></trkpt>
<trkpt lat="48.8966903" lon="2.6451884"><ele>49.78</ele><time>2026-5-2T19:19:44Z</time></trkpt>
<trkpt lat="48.8965259" lon="2.6450631"><ele>50.44</ele><time>2026-5-2T19:19:47Z</time></trkpt>
<trkpt lat="48.8963402" lon="2.6448694"><ele>51.00</ele><time>2026-5-2T19:19:50Z</time></trkpt>
<trkpt lat="48.8961585" lon="2.6446573"><ele>52.12</ele><time>2026-5-2T19:19:53Z</time></trkpt>
<trkpt lat="48.8959703" lon="2.6444919"><ele>52.68</ele><time>2026-5-2T19:19:56Z</time></trkpt>
<trkpt lat="48.8957854" lon="2.6442485"><ele>51.38</ele><time>2026-5-2T19:19:59Z</time></trkpt>
<trkpt lat="48.8956172" lon="2.6440032"><ele>50.96</ele><time>2026-5-2T19:20:2Z</time></trkpt>
<trkpt lat="48.8954864" lon="2.6437469"><ele>52.27</ele><time>2026-5-2T19:20:5Z</time></trkpt>
<trkpt lat="48.8953402" lon="2.6434641"><ele>52.94</ele><time>2026-5-2T19:20:8Z</time></trkpt>
<trkpt lat="48.8952390" lon="2.6432181"><ele>53.80</ele><time>2026-5-2T19:20:11Z</time></trkpt>
<trkpt lat="48.8951022" lon="2.6429069"><ele>54.17</ele><time>2026-5-2T19:20:14Z</time></trkpt>
<trkpt lat="48.8949929" lon="2.6426537"><ele>52.44</ele><time>2026-5-2T19:20:17Z</time></trkpt>
<trkpt lat="48.8949027" lon="2.6423919"><ele>53.48</ele><time>2026-5-2T19:20:20Z</time></trkpt>
<trkpt lat="48.8947998" lon="2.6421278"><ele>56.46</ele><time>2026-5-2T19:20:23Z</time></trkpt>
<trkpt lat="48.8947037" lon="2.6418679"><ele>55.87</ele><time>2026-5-2T19:20:26Z</time></trkpt>
<trkpt lat="48.8945752" lon="2.6416489"><ele>52.85</ele><time>2026-5-2T19:20:29Z</time></trkpt>
<trkpt lat="48.8944644" lon="2.6413846"><ele>53.96</ele><time>2026-5-2T19:20:32Z</time></trkpt>
<trkpt lat="48.8943286" lon="2.6411049"><ele>55.55</ele><time>2026-5-2T19:20:35Z</time></trkpt>
<trkpt lat="48.8941842" lon="2.6408480"><ele>56.41</ele><time>2026-5-2T19:20:38Z</time></trkpt>
<trkpt lat="48.8940557" lon="2.6405442"><ele>55.96</ele><time>2026-5-2T19:20:41Z</time></trkpt>
<trkpt lat="48.8939490" lon="2.6402758"><ele>55.50</ele><time>2026-5-2T19:20:44Z</time></trkpt>
<trkpt lat="48.8938604" lon="2.6400014"><ele>54.97</ele><time>2026-5-2T19:20:47Z</time></trkpt>
<trkpt lat="48.8937574" lon="2.6397271"><ele>55.08</ele><time>2026-5-2T19:20:50Z</time></trkpt>
<trkpt lat="48.8936209" lon="2.6394775"><ele>54.55</ele><time>2026-5-2T19:20:53Z</time></trkpt>
<trkpt lat="48.8935049" lon="2.6391595"><ele>55.97</ele><time>2026-5-2T19:20:56Z</time></trkpt>
<trkpt lat="48.8933847" lon="2.6389493"><ele>56.31</ele><time>2026-5-2T19:20:59Z</time></trkpt>
<trkpt lat="48.8932291" lon="2.6385497"><ele>55.26</ele><time>2026-5-2T19:21:2Z</time></trkpt>
<trkpt lat="48.8930902" lon="2.6382154"><ele>57.24</ele><time>2026-5-2T19:21:5Z</time></trkpt>
<trkpt lat="48.8929741" lon="2.6378915"><ele>54.88</ele><time>2026-5-2T19:21:8Z</time></trkpt>
<trkpt lat="48.8928540" lon="2.6376102"><ele>53.71</ele><time>2026-5-2T19:21:11Z</time></trkpt>
<trkpt lat="48.8927424" lon="2.6373681"><ele>53.21</ele><time>2026-5-2T19:21:14Z</time></trkpt>
<trkpt lat="48.8926237" lon="2.6371326"><ele>51.90</ele><time>2026-5-2T19:21:17Z</time></trkpt>
<trkpt lat="48.8923270" lon="2.6364933"><ele>49.00</ele><time>2026-5-2T19:21:20Z</time></trkpt>
<trkpt lat="48.8922051" lon="2.6362238"><ele>52.08</ele><time>2026-5-2T19:21:23Z</time></trkpt>
<trkpt lat="48.8920925" lon="2.6359884"><ele>53.08</ele><time>2026-5-2T19:21:26Z</time></trkpt>
<trkpt lat="48.8919876" lon="2.6357224"><ele>54.56</ele><time>2026-5-2T19:21:29Z</time></trkpt>
<trkpt lat="48.8918905" lon="2.6354826"><ele>55.19</ele><time>2026-5-2T19:21:32Z</time></trkpt>
<trkpt lat="48.8917696" lon="2.6352670"><ele>50.17</ele><time>2026-5-2T19:21:35Z</time></trkpt>
<trkpt lat="48.8916384" lon="2.6349582"><ele>49.17</ele><time>2026-5-2T19:21:38Z</time></trkpt>
<trkpt lat="48.8915094" lon="2.6347401"><ele>44.16</ele><time>2026-5-2T19:21:41Z</time></trkpt>
<trkpt lat="48.8912978" lon="2.6342339"><ele>43.83</ele><time>2026-5-2T19:21:44Z</time></trkpt>
<trkpt lat="48.8911988" lon="2.6339059"><ele>43.08</ele><time>2026-5-2T19:21:47Z</time></trkpt>
<trkpt lat="48.8911046" lon="2.6336062"><ele>42.51</ele><time>2026-5-2T19:21:50Z</time></trkpt>
<trkpt lat="48.8909425" lon="2.6334530"><ele>43.54</ele><time>2026-5-2T19:21:53Z</time></trkpt>
<trkpt lat="48.8908440" lon="2.6331431"><ele>45.11</ele><time>2026-5-2T19:21:56Z</time></trkpt>
<trkpt lat="48.8908209" lon="2.6326596"><ele>46.37</ele><time>2026-5-2T19:21:59Z</time></trkpt>
<trkpt lat="48.8907176" lon="2.6323919"><ele>47.25</ele><time>2026-5-2T19:22:2Z</time></trkpt>
<trkpt lat="48.8905978" lon="2.6320972"><ele>47.37</ele><time>2026-5-2T19:22:5Z</time></trkpt>
<trkpt lat="48.8904358" lon="2.6318134"><ele>46.32</ele><time>2026-5-2T19:22:8Z</time></trkpt>
<trkpt lat="48.8902975" lon="2.6315458"><ele>46.81</ele><time>2026-5-2T19:22:11Z</time></trkpt>
<trkpt lat="48.8901454" lon="2.6312684"><ele>46.76</ele><time>2026-5-2T19:22:14Z</time></trkpt>
<trkpt lat="48.8899964" lon="2.6310245"><ele>45.07</ele><time>2026-5-2T19:22:17Z</time></trkpt>
<trkpt lat="48.8898467" lon="2.6307684"><ele>45.17</ele><time>2026-5-2T19:22:20Z</time></trkpt>
<trkpt lat="48.8897151" lon="2.6305243"><ele>46.72</ele><time>2026-5-2T19:22:23Z</time></trkpt>
<trkpt lat="48.8895769" lon="2.6302773"><ele>46.61</ele><time>2026-5-2T19:22:26Z</time></trkpt>
<trkpt lat="48.8894534" lon="2.6300252"><ele>46.81</ele><time>2026-5-2T19:22:29Z</time></trkpt>
<trkpt lat="48.8893380" lon="2.6297608"><ele>48.20</ele><time>2026-5-2T19:22:32Z</time></trkpt>
<trkpt lat="48.8892104" lon="2.6295178"><ele>47.28</ele><time>2026-5-2T19:22:35Z</time></trkpt>
<trkpt lat="48.8890868" lon="2.6292961"><ele>46.28</ele><time>2026-5-2T19:22:38Z</time></trkpt>
<trkpt lat="48.8889642" lon="2.6290521"><ele>47.80</ele><time>2026-5-2T19:22:41Z</time></trkpt>
<trkpt lat="48.8888295" lon="2.6288240"><ele>48.23</ele><time>2026-5-2T19:22:44Z</time></trkpt>
<trkpt lat="48.8887159" lon="2.6286046"><ele>49.09</ele><time>2026-5-2T19:22:47Z</time></trkpt>
<trkpt lat="48.8885961" lon="2.6283562"><ele>50.44</ele><time>2026-5-2T19:22:50Z</time></trkpt>
<trkpt lat="48.8884601" lon="2.6281094"><ele>51.33</ele><time>2026-5-2T19:22:53Z</time></trkpt>
<trkpt lat="48.8883383" lon="2.6278693"><ele>53.92</ele><time>2026-5-2T19:22:56Z</time></trkpt>
<trkpt lat="48.8882162" lon="2.6276471"><ele>59.28</ele><time>2026-5-2T19:22:59Z</time></trkpt>
<trkpt lat="48.8880646" lon="2.6274236"><ele>58.57</ele><time>2026-5-2T19:23:2Z</time></trkpt>
<trkpt lat="48.8879256" lon="2.6272034"><ele>60.87</ele><time>2026-5-2T19:23:5Z</time></trkpt>
<trkpt lat="48.8877839" lon="2.6269505"><ele>58.66</ele><time>2026-5-2T19:23:8Z</time></trkpt>
<trkpt lat="48.8876067" lon="2.6268244"><ele>57.12</ele><time>2026-5-2T19:23:11Z</time></trkpt>
<trkpt lat="48.8874757" lon="2.6270499"><ele>52.08</ele><time>2026-5-2T19:23:14Z</time></trkpt>
<trkpt lat="48.8873150" lon="2.6272232"><ele>50.67</ele><time>2026-5-2T19:23:17Z</time></trkpt>
<trkpt lat="48.8871316" lon="2.6274066"><ele>50.67</ele><time>2026-5-2T19:23:20Z</time></trkpt>
<trkpt lat="48.8869602" lon="2.6276407"><ele>52.12</ele><time>2026-5-2T19:23:23Z</time></trkpt>
<trkpt lat="48.8868145" lon="2.6278104"><ele>50.98</ele><time>2026-5-2T19:23:26Z</time></trkpt>
<trkpt lat="48.8866503" lon="2.6279627"><ele>50.13</ele><time>2026-5-2T19:23:29Z</time></trkpt>
<trkpt lat="48.8864614" lon="2.6279622"><ele>50.42</ele><time>2026-5-2T19:23:32Z</time></trkpt>
</trkseg></trk></gpx>